createdAt,value
2023-04-21T00:03:08.757Z,97236.28
2023-04-21T00:13:11.372Z,97231.50
2023-04-21T00:23:13.607Z,97228.44
2023-04-21T00:33:15.712Z,97221.44
2023-04-21T00:43:17.831Z,97202.13
2023-04-21T00:53:21.067Z,97199.62
2023-04-21T01:03:23.335Z,97188.31
2023-04-21T01:13:25.685Z,97176.41
2023-04-21T01:23:27.812Z,97185.34
2023-04-21T01:33:30.209Z,97188.09
2023-04-21T01:43:32.510Z,97194.28
2023-04-21T01:53:34.906Z,97191.75
2023-04-21T02:03:37.397Z,97188.94
2023-04-21T02:13:39.676Z,97189.81
2023-04-21T02:23:41.912Z,97192.06
2023-04-21T02:33:44.274Z,97206.03
2023-04-21T02:43:46.616Z,97193.00
2023-04-21T02:53:48.878Z,97191.88
2023-04-21T03:03:51.051Z,97200.72
2023-04-21T03:13:53.347Z,97190.66
2023-04-21T03:23:55.709Z,97196.78
2023-04-21T03:33:57.868Z,97200.06
2023-04-21T03:44:00.222Z,97199.31
2023-04-21T03:54:02.470Z,97195.66
2023-04-21T04:04:04.871Z,97194.03
2023-04-21T04:14:07.185Z,97193.19
2023-04-21T04:24:11.459Z,97192.84
2023-04-21T04:34:13.796Z,97206.38
2023-04-21T04:44:18.372Z,97196.75
2023-04-21T04:54:21.103Z,97206.84
2023-04-21T05:04:24.220Z,97217.44
2023-04-21T05:14:27.289Z,97208.97
2023-04-21T05:24:29.376Z,97218.41
2023-04-21T05:34:31.583Z,97236.34
2023-04-21T05:44:33.692Z,97251.75
2023-04-21T05:54:36.166Z,97247.50
2023-04-21T06:04:38.908Z,97244.38
2023-04-21T06:14:41.641Z,97240.31
2023-04-21T06:24:43.875Z,97226.28
2023-04-21T06:34:46.483Z,97235.94
2023-04-21T06:44:50.789Z,97240.38
2023-04-21T06:54:53.530Z,97246.16
2023-04-21T07:04:56.148Z,97247.34
2023-04-21T07:14:58.717Z,97234.13
2023-04-21T07:25:01.378Z,97213.97
2023-04-21T07:35:03.908Z,97183.50
2023-04-21T07:45:06.618Z,97176.88
2023-04-21T07:55:08.915Z,97170.16
2023-04-21T08:05:11.585Z,97165.16
2023-04-21T08:15:14.174Z,97154.94
2023-04-21T08:25:16.698Z,97150.59
2023-04-21T08:35:19.134Z,97149.91
2023-04-21T08:45:21.524Z,97147.84
2023-04-21T08:55:28.326Z,97141.69
2023-04-21T09:05:31.874Z,97160.88
2023-04-21T09:15:39.549Z,97162.78
2023-04-21T09:25:42.962Z,97154.91
2023-04-21T09:35:45.354Z,97167.56
2023-04-21T09:45:48.265Z,97175.69
2023-04-21T09:55:52.323Z,97168.03
2023-04-21T10:05:55.659Z,97168.63
2023-04-21T10:16:04.144Z,97154.81
2023-04-21T10:26:09.069Z,97168.66
2023-04-21T10:36:12.763Z,97169.62
2023-04-21T10:46:34.967Z,97147.44
2023-04-21T10:56:38.815Z,97146.59
2023-04-21T11:06:41.899Z,97144.19
2023-04-21T11:16:45.224Z,97142.44
2023-04-21T11:26:47.728Z,97143.28
2023-04-21T11:36:50.139Z,97152.44
2023-04-21T11:46:52.402Z,97161.16
2023-04-21T11:56:54.821Z,97170.69
2023-04-21T12:07:01.072Z,97151.31
2023-04-21T12:17:03.579Z,97157.72
2023-04-21T12:27:06.765Z,97152.41
2023-04-21T12:37:09.494Z,97158.09
2023-04-21T12:47:12.072Z,97170.09
2023-04-21T12:57:16.133Z,97184.38
2023-04-21T13:07:21.736Z,97182.88
2023-04-21T13:17:24.700Z,97184.75
2023-04-21T13:27:29.801Z,97175.72
2023-04-21T13:37:32.193Z,97164.44
2023-04-21T13:47:34.910Z,97144.19
2023-04-21T13:57:37.868Z,97159.34
2023-04-21T14:07:40.673Z,97122.69
2023-04-21T14:17:43.145Z,97123.00
2023-04-21T14:27:45.705Z,97116.12
2023-04-21T14:37:48.214Z,97119.72
2023-04-21T14:47:51.111Z,97111.94
2023-04-21T14:57:53.766Z,97103.38
2023-04-21T15:07:56.858Z,97088.50
2023-04-21T15:17:59.247Z,97090.69
2023-04-21T15:28:01.810Z,97089.47
2023-04-21T15:38:05.015Z,97098.63
2023-04-21T15:48:07.640Z,97085.25
2023-04-21T15:58:13.860Z,97096.63
2023-04-21T16:08:16.721Z,97088.84
2023-04-21T16:18:19.500Z,97105.09
2023-04-21T16:28:22.316Z,97084.06
2023-04-21T16:38:24.871Z,97073.94
2023-04-21T16:48:27.463Z,97084.19
2023-04-21T16:58:30.665Z,97071.22
2023-04-21T17:08:33.469Z,97053.22
2023-04-21T17:18:36.511Z,97050.25
2023-04-21T17:28:39.330Z,97060.84
2023-04-21T17:38:43.255Z,97043.28
2023-04-21T17:48:46.236Z,97034.19
2023-04-21T17:58:48.880Z,97039.09
2023-04-21T18:08:51.505Z,97062.91
2023-04-21T18:18:53.997Z,97050.44
2023-04-21T18:28:58.603Z,97053.34
2023-04-21T18:39:01.312Z,97048.69
2023-04-21T18:49:03.570Z,97060.22
2023-04-21T18:59:06.074Z,97066.81
2023-04-21T19:09:08.489Z,97074.97
2023-04-21T19:19:11.241Z,97069.63
2023-04-21T19:29:15.354Z,97076.44
2023-04-21T19:39:17.777Z,97078.34
2023-04-21T19:49:20.183Z,97079.47
2023-04-21T19:59:22.631Z,97077.31
2023-04-21T20:09:25.006Z,97082.19
2023-04-21T20:19:27.466Z,97085.97
2023-04-21T20:29:30.425Z,97095.72
2023-04-21T20:39:33.050Z,97077.13
2023-04-21T20:49:35.709Z,97066.03
2023-04-21T20:59:38.947Z,97051.75
2023-04-21T21:09:41.711Z,97063.59
2023-04-21T21:19:44.310Z,97072.50
2023-04-21T21:29:46.754Z,97070.88
2023-04-21T21:39:49.069Z,97074.37
2023-04-21T21:49:55.144Z,97074.63
2023-04-21T21:59:57.597Z,97067.06
2023-04-21T22:10:00.049Z,97065.19
2023-04-21T22:20:08.724Z,97057.41
2023-04-21T22:30:11.844Z,97074.31
2023-04-21T22:40:14.536Z,97072.44
2023-04-21T22:50:16.813Z,97069.69
2023-04-21T23:00:19.081Z,97073.69
2023-04-21T23:10:22.791Z,97068.53
2023-04-21T23:20:25.131Z,97063.09
2023-04-21T23:30:27.682Z,97058.78
2023-04-21T23:40:30.019Z,97043.13
2023-04-21T23:50:32.434Z,97043.09
